sensor_id;sensor_type;location;lat;lon;timestamp;P1;durP1;ratioP1;P2;durP2;ratioP2
4084;SDS011;2057;50.858;6.572;2023-05-07T00:01:25;7.73;;;5.00;;
4084;SDS011;2057;50.858;6.572;2023-05-07T00:03:50;8.57;;;5.00;;
4084;SDS011;2057;50.858;6.572;2023-05-07T00:06:16;7.70;;;5.00;;
4084;SDS011;2057;50.858;6.572;2023-05-07T00:08:42;6.87;;;5.33;;
4084;SDS011;2057;50.858;6.572;2023-05-07T00:11:07;9.27;;;5.37;;
4084;SDS011;2057;50.858;6.572;2023-05-07T00:13:32;7.23;;;4.33;;
4084;SDS011;2057;50.858;6.572;2023-05-07T00:16:00;4.90;;;4.43;;
4084;SDS011;2057;50.858;6.572;2023-05-07T00:18:27;8.63;;;4.47;;
4084;SDS011;2057;50.858;6.572;2023-05-07T00:20:52;5.63;;;4.57;;
4084;SDS011;2057;50.858;6.572;2023-05-07T00:23:18;7.23;;;4.73;;
4084;SDS011;2057;50.858;6.572;2023-05-07T00:25:43;11.50;;;4.33;;
4084;SDS011;2057;50.858;6.572;2023-05-07T00:28:08;6.93;;;5.17;;
4084;SDS011;2057;50.858;6.572;2023-05-07T00:30:34;10.10;;;4.40;;
4084;SDS011;2057;50.858;6.572;2023-05-07T00:32:59;4.40;;;3.90;;
4084;SDS011;2057;50.858;6.572;2023-05-07T00:35:24;5.30;;;4.17;;
4084;SDS011;2057;50.858;6.572;2023-05-07T00:37:50;4.67;;;4.27;;
4084;SDS011;2057;50.858;6.572;2023-05-07T00:40:15;6.50;;;3.90;;
4084;SDS011;2057;50.858;6.572;2023-05-07T00:42:41;6.87;;;3.20;;
4084;SDS011;2057;50.858;6.572;2023-05-07T00:45:06;4.80;;;3.80;;
4084;SDS011;2057;50.858;6.572;2023-05-07T00:47:34;4.40;;;3.67;;
4084;SDS011;2057;50.858;6.572;2023-05-07T00:49:59;6.53;;;3.67;;
4084;SDS011;2057;50.858;6.572;2023-05-07T00:52:25;3.90;;;3.60;;
4084;SDS011;2057;50.858;6.572;2023-05-07T00:54:51;5.13;;;3.70;;
4084;SDS011;2057;50.858;6.572;2023-05-07T00:57:17;6.80;;;4.37;;
4084;SDS011;2057;50.858;6.572;2023-05-07T00:59:42;8.47;;;3.87;;
4084;SDS011;2057;50.858;6.572;2023-05-07T01:02:08;3.97;;;3.63;;
4084;SDS011;2057;50.858;6.572;2023-05-07T01:04:33;7.23;;;2.90;;
4084;SDS011;2057;50.858;6.572;2023-05-07T01:06:58;4.97;;;3.30;;
4084;SDS011;2057;50.858;6.572;2023-05-07T01:09:26;8.07;;;3.83;;
4084;SDS011;2057;50.858;6.572;2023-05-07T01:11:53;5.70;;;3.40;;
4084;SDS011;2057;50.858;6.572;2023-05-07T01:14:20;4.23;;;3.50;;
4084;SDS011;2057;50.858;6.572;2023-05-07T01:16:46;6.17;;;3.50;;
4084;SDS011;2057;50.858;6.572;2023-05-07T01:19:12;3.70;;;3.20;;
4084;SDS011;2057;50.858;6.572;2023-05-07T01:21:41;3.43;;;3.13;;
4084;SDS011;2057;50.858;6.572;2023-05-07T01:24:11;3.60;;;3.30;;
4084;SDS011;2057;50.858;6.572;2023-05-07T01:26:37;4.07;;;3.67;;
4084;SDS011;2057;50.858;6.572;2023-05-07T01:29:03;5.40;;;3.23;;
4084;SDS011;2057;50.858;6.572;2023-05-07T01:31:28;7.80;;;3.33;;
4084;SDS011;2057;50.858;6.572;2023-05-07T01:33:54;4.10;;;3.70;;
4084;SDS011;2057;50.858;6.572;2023-05-07T01:36:22;4.07;;;3.10;;
4084;SDS011;2057;50.858;6.572;2023-05-07T01:38:50;10.23;;;3.40;;
4084;SDS011;2057;50.858;6.572;2023-05-07T01:41:16;6.30;;;3.37;;
4084;SDS011;2057;50.858;6.572;2023-05-07T01:43:42;11.00;;;3.30;;
4084;SDS011;2057;50.858;6.572;2023-05-07T01:46:08;5.80;;;3.20;;
4084;SDS011;2057;50.858;6.572;2023-05-07T01:48:35;4.80;;;3.93;;
4084;SDS011;2057;50.858;6.572;2023-05-07T01:51:01;11.93;;;4.27;;
4084;SDS011;2057;50.858;6.572;2023-05-07T01:53:27;7.50;;;3.90;;
4084;SDS011;2057;50.858;6.572;2023-05-07T01:55:53;6.73;;;4.60;;
4084;SDS011;2057;50.858;6.572;2023-05-07T01:58:18;9.03;;;4.30;;
4084;SDS011;2057;50.858;6.572;2023-05-07T02:00:43;4.80;;;4.20;;
4084;SDS011;2057;50.858;6.572;2023-05-07T02:03:09;5.27;;;4.20;;
4084;SDS011;2057;50.858;6.572;2023-05-07T02:05:34;6.47;;;4.20;;
4084;SDS011;2057;50.858;6.572;2023-05-07T02:08:00;4.73;;;4.20;;
4084;SDS011;2057;50.858;6.572;2023-05-07T02:10:25;6.80;;;4.40;;
4084;SDS011;2057;50.858;6.572;2023-05-07T02:12:50;4.67;;;4.17;;
4084;SDS011;2057;50.858;6.572;2023-05-07T02:15:16;5.30;;;4.80;;
4084;SDS011;2057;50.858;6.572;2023-05-07T02:20:28;6.90;;;5.30;;
4084;SDS011;2057;50.858;6.572;2023-05-07T02:22:53;8.70;;;4.67;;
4084;SDS011;2057;50.858;6.572;2023-05-07T02:25:19;11.80;;;4.47;;
4084;SDS011;2057;50.858;6.572;2023-05-07T02:27:44;7.60;;;4.30;;
4084;SDS011;2057;50.858;6.572;2023-05-07T02:30:10;13.90;;;5.63;;
4084;SDS011;2057;50.858;6.572;2023-05-07T02:32:35;11.47;;;4.93;;
4084;SDS011;2057;50.858;6.572;2023-05-07T02:35:00;12.60;;;6.10;;
4084;SDS011;2057;50.858;6.572;2023-05-07T02:37:26;7.20;;;5.50;;
4084;SDS011;2057;50.858;6.572;2023-05-07T02:39:51;15.63;;;6.43;;
4084;SDS011;2057;50.858;6.572;2023-05-07T02:42:16;12.83;;;5.97;;
4084;SDS011;2057;50.858;6.572;2023-05-07T02:44:42;12.40;;;6.73;;
4084;SDS011;2057;50.858;6.572;2023-05-07T02:47:07;11.63;;;6.30;;
4084;SDS011;2057;50.858;6.572;2023-05-07T02:49:34;9.73;;;7.30;;
4084;SDS011;2057;50.858;6.572;2023-05-07T02:51:59;13.73;;;7.30;;
4084;SDS011;2057;50.858;6.572;2023-05-07T02:54:25;11.60;;;7.10;;
4084;SDS011;2057;50.858;6.572;2023-05-07T02:56:50;13.87;;;7.60;;
4084;SDS011;2057;50.858;6.572;2023-05-07T02:59:15;10.50;;;7.17;;
4084;SDS011;2057;50.858;6.572;2023-05-07T03:01:41;8.40;;;7.40;;
4084;SDS011;2057;50.858;6.572;2023-05-07T03:04:08;11.10;;;8.03;;
4084;SDS011;2057;50.858;6.572;2023-05-07T03:06:34;10.00;;;7.20;;
4084;SDS011;2057;50.858;6.572;2023-05-07T03:09:00;8.50;;;6.77;;
4084;SDS011;2057;50.858;6.572;2023-05-07T03:11:25;9.70;;;7.40;;
4084;SDS011;2057;50.858;6.572;2023-05-07T03:13:50;7.20;;;6.30;;
4084;SDS011;2057;50.858;6.572;2023-05-07T03:16:16;9.63;;;6.50;;
4084;SDS011;2057;50.858;6.572;2023-05-07T03:18:41;7.83;;;6.40;;
4084;SDS011;2057;50.858;6.572;2023-05-07T03:21:06;9.90;;;6.60;;
4084;SDS011;2057;50.858;6.572;2023-05-07T03:23:31;9.30;;;6.63;;
4084;SDS011;2057;50.858;6.572;2023-05-07T03:25:57;14.50;;;6.30;;
4084;SDS011;2057;50.858;6.572;2023-05-07T03:28:22;9.10;;;5.73;;
4084;SDS011;2057;50.858;6.572;2023-05-07T03:30:47;6.60;;;5.50;;
4084;SDS011;2057;50.858;6.572;2023-05-07T03:33:13;10.23;;;6.30;;
4084;SDS011;2057;50.858;6.572;2023-05-07T03:35:38;10.23;;;6.20;;
4084;SDS011;2057;50.858;6.572;2023-05-07T03:38:04;9.40;;;6.40;;
4084;SDS011;2057;50.858;6.572;2023-05-07T03:40:29;8.10;;;6.00;;
4084;SDS011;2057;50.858;6.572;2023-05-07T03:42:55;8.97;;;5.60;;
4084;SDS011;2057;50.858;6.572;2023-05-07T03:45:20;7.60;;;5.50;;
4084;SDS011;2057;50.858;6.572;2023-05-07T03:47:45;14.43;;;5.53;;
4084;SDS011;2057;50.858;6.572;2023-05-07T03:50:10;7.30;;;5.27;;
4084;SDS011;2057;50.858;6.572;2023-05-07T03:52:36;6.23;;;5.20;;
4084;SDS011;2057;50.858;6.572;2023-05-07T03:55:01;16.67;;;5.67;;
4084;SDS011;2057;50.858;6.572;2023-05-07T03:57:27;10.53;;;5.50;;
4084;SDS011;2057;50.858;6.572;2023-05-07T03:59:52;10.93;;;5.47;;
4084;SDS011;2057;50.858;6.572;2023-05-07T04:02:17;5.60;;;5.10;;
4084;SDS011;2057;50.858;6.572;2023-05-07T04:04:42;13.47;;;6.63;;
4084;SDS011;2057;50.858;6.572;2023-05-07T04:07:08;6.80;;;6.13;;
4084;SDS011;2057;50.858;6.572;2023-05-07T04:09:33;17.90;;;5.70;;
4084;SDS011;2057;50.858;6.572;2023-05-07T04:11:59;8.90;;;5.70;;
4084;SDS011;2057;50.858;6.572;2023-05-07T04:14:24;12.30;;;4.67;;
4084;SDS011;2057;50.858;6.572;2023-05-07T04:16:49;7.60;;;6.60;;
4084;SDS011;2057;50.858;6.572;2023-05-07T04:19:15;9.00;;;5.13;;
4084;SDS011;2057;50.858;6.572;2023-05-07T04:21:40;9.70;;;5.13;;
4084;SDS011;2057;50.858;6.572;2023-05-07T04:24:06;11.43;;;5.33;;
4084;SDS011;2057;50.858;6.572;2023-05-07T04:26:31;8.97;;;4.30;;
4084;SDS011;2057;50.858;6.572;2023-05-07T04:28:56;6.27;;;4.70;;
4084;SDS011;2057;50.858;6.572;2023-05-07T04:31:24;7.43;;;4.97;;
4084;SDS011;2057;50.858;6.572;2023-05-07T04:33:49;15.07;;;5.17;;
4084;SDS011;2057;50.858;6.572;2023-05-07T04:36:15;4.57;;;4.10;;
4084;SDS011;2057;50.858;6.572;2023-05-07T04:38:41;7.23;;;4.93;;
4084;SDS011;2057;50.858;6.572;2023-05-07T04:41:06;8.10;;;4.50;;
4084;SDS011;2057;50.858;6.572;2023-05-07T04:43:34;7.20;;;5.30;;
4084;SDS011;2057;50.858;6.572;2023-05-07T04:46:00;6.30;;;4.30;;
4084;SDS011;2057;50.858;6.572;2023-05-07T04:48:25;9.40;;;4.63;;
4084;SDS011;2057;50.858;6.572;2023-05-07T04:50:51;8.80;;;4.27;;
4084;SDS011;2057;50.858;6.572;2023-05-07T04:53:17;5.67;;;3.90;;
4084;SDS011;2057;50.858;6.572;2023-05-07T04:55:43;7.77;;;4.97;;
4084;SDS011;2057;50.858;6.572;2023-05-07T04:58:10;7.03;;;3.97;;
4084;SDS011;2057;50.858;6.572;2023-05-07T05:00:35;5.87;;;4.87;;
4084;SDS011;2057;50.858;6.572;2023-05-07T05:03:00;5.80;;;4.00;;
4084;SDS011;2057;50.858;6.572;2023-05-07T05:05:26;5.20;;;3.97;;
4084;SDS011;2057;50.858;6.572;2023-05-07T05:07:51;12.93;;;4.77;;
4084;SDS011;2057;50.858;6.572;2023-05-07T05:10:17;8.70;;;4.17;;
4084;SDS011;2057;50.858;6.572;2023-05-07T05:12:42;15.93;;;3.80;;
4084;SDS011;2057;50.858;6.572;2023-05-07T05:15:08;8.03;;;3.70;;
4084;SDS011;2057;50.858;6.572;2023-05-07T05:17:34;3.80;;;3.00;;
4084;SDS011;2057;50.858;6.572;2023-05-07T05:20:00;6.27;;;4.93;;
4084;SDS011;2057;50.858;6.572;2023-05-07T05:22:26;5.30;;;4.80;;
4084;SDS011;2057;50.858;6.572;2023-05-07T05:24:51;8.77;;;4.53;;
4084;SDS011;2057;50.858;6.572;2023-05-07T05:27:16;5.63;;;3.87;;
4084;SDS011;2057;50.858;6.572;2023-05-07T05:29:42;17.80;;;5.03;;
4084;SDS011;2057;50.858;6.572;2023-05-07T05:32:07;16.33;;;4.97;;
4084;SDS011;2057;50.858;6.572;2023-05-07T05:34:32;6.47;;;5.10;;
4084;SDS011;2057;50.858;6.572;2023-05-07T05:36:58;25.23;;;6.30;;
4084;SDS011;2057;50.858;6.572;2023-05-07T05:39:24;7.93;;;5.40;;
4084;SDS011;2057;50.858;6.572;2023-05-07T05:41:49;6.00;;;4.70;;
4084;SDS011;2057;50.858;6.572;2023-05-07T05:44:14;10.77;;;4.83;;
4084;SDS011;2057;50.858;6.572;2023-05-07T05:46:40;11.20;;;5.30;;
4084;SDS011;2057;50.858;6.572;2023-05-07T05:49:05;7.87;;;5.53;;
4084;SDS011;2057;50.858;6.572;2023-05-07T05:51:30;10.97;;;5.50;;
4084;SDS011;2057;50.858;6.572;2023-05-07T05:53:56;7.53;;;4.93;;
4084;SDS011;2057;50.858;6.572;2023-05-07T05:56:21;11.67;;;6.93;;
4084;SDS011;2057;50.858;6.572;2023-05-07T05:58:47;8.30;;;6.03;;
4084;SDS011;2057;50.858;6.572;2023-05-07T06:01:12;9.70;;;6.27;;
4084;SDS011;2057;50.858;6.572;2023-05-07T06:03:37;12.10;;;5.93;;
4084;SDS011;2057;50.858;6.572;2023-05-07T06:06:03;12.00;;;6.80;;
4084;SDS011;2057;50.858;6.572;2023-05-07T06:08:31;6.87;;;6.13;;
4084;SDS011;2057;50.858;6.572;2023-05-07T06:10:56;18.03;;;7.40;;
4084;SDS011;2057;50.858;6.572;2023-05-07T06:13:22;12.47;;;7.23;;
4084;SDS011;2057;50.858;6.572;2023-05-07T06:15:48;20.37;;;7.43;;
4084;SDS011;2057;50.858;6.572;2023-05-07T06:18:14;13.40;;;7.00;;
4084;SDS011;2057;50.858;6.572;2023-05-07T06:20:39;13.43;;;6.23;;
4084;SDS011;2057;50.858;6.572;2023-05-07T06:23:04;10.93;;;7.77;;
4084;SDS011;2057;50.858;6.572;2023-05-07T06:25:30;13.93;;;7.10;;
4084;SDS011;2057;50.858;6.572;2023-05-07T06:27:55;10.20;;;7.00;;
4084;SDS011;2057;50.858;6.572;2023-05-07T06:30:20;13.70;;;7.07;;
4084;SDS011;2057;50.858;6.572;2023-05-07T06:32:46;10.83;;;7.07;;
4084;SDS011;2057;50.858;6.572;2023-05-07T06:35:11;17.73;;;7.33;;
4084;SDS011;2057;50.858;6.572;2023-05-07T06:37:36;16.27;;;7.13;;
4084;SDS011;2057;50.858;6.572;2023-05-07T06:40:07;7.60;;;6.83;;
4084;SDS011;2057;50.858;6.572;2023-05-07T06:42:33;14.33;;;7.27;;
4084;SDS011;2057;50.858;6.572;2023-05-07T06:44:58;10.97;;;6.30;;
4084;SDS011;2057;50.858;6.572;2023-05-07T06:47:24;14.53;;;6.30;;
4084;SDS011;2057;50.858;6.572;2023-05-07T06:49:49;7.60;;;6.60;;
4084;SDS011;2057;50.858;6.572;2023-05-07T06:52:15;9.93;;;6.63;;
4084;SDS011;2057;50.858;6.572;2023-05-07T06:54:40;9.37;;;6.80;;
4084;SDS011;2057;50.858;6.572;2023-05-07T06:57:05;7.50;;;6.23;;
4084;SDS011;2057;50.858;6.572;2023-05-07T06:59:31;10.93;;;6.53;;
4084;SDS011;2057;50.858;6.572;2023-05-07T07:01:56;8.43;;;5.43;;
4084;SDS011;2057;50.858;6.572;2023-05-07T07:04:21;5.90;;;5.00;;
4084;SDS011;2057;50.858;6.572;2023-05-07T07:06:51;12.13;;;5.33;;
4084;SDS011;2057;50.858;6.572;2023-05-07T07:09:17;6.13;;;4.63;;
4084;SDS011;2057;50.858;6.572;2023-05-07T07:11:42;6.80;;;5.27;;
4084;SDS011;2057;50.858;6.572;2023-05-07T07:14:07;6.33;;;4.80;;
4084;SDS011;2057;50.858;6.572;2023-05-07T07:16:33;6.70;;;4.80;;
4084;SDS011;2057;50.858;6.572;2023-05-07T07:18:58;7.93;;;5.57;;
4084;SDS011;2057;50.858;6.572;2023-05-07T07:21:24;8.60;;;5.50;;
4084;SDS011;2057;50.858;6.572;2023-05-07T07:23:49;5.60;;;4.97;;
4084;SDS011;2057;50.858;6.572;2023-05-07T07:26:14;6.90;;;5.00;;
4084;SDS011;2057;50.858;6.572;2023-05-07T07:28:43;6.83;;;5.20;;
4084;SDS011;2057;50.858;6.572;2023-05-07T07:31:09;7.30;;;6.20;;
4084;SDS011;2057;50.858;6.572;2023-05-07T07:33:35;6.17;;;5.37;;
4084;SDS011;2057;50.858;6.572;2023-05-07T07:36:00;9.20;;;6.47;;
4084;SDS011;2057;50.858;6.572;2023-05-07T07:38:25;6.40;;;5.80;;
4084;SDS011;2057;50.858;6.572;2023-05-07T07:40:51;7.57;;;6.80;;
4084;SDS011;2057;50.858;6.572;2023-05-07T07:43:16;8.70;;;6.70;;
4084;SDS011;2057;50.858;6.572;2023-05-07T07:45:41;8.03;;;5.70;;
4084;SDS011;2057;50.858;6.572;2023-05-07T07:48:07;7.03;;;4.87;;
4084;SDS011;2057;50.858;6.572;2023-05-07T07:50:32;11.83;;;5.70;;
4084;SDS011;2057;50.858;6.572;2023-05-07T07:52:57;12.87;;;5.70;;
4084;SDS011;2057;50.858;6.572;2023-05-07T07:55:23;6.70;;;5.13;;
4084;SDS011;2057;50.858;6.572;2023-05-07T07:57:51;6.67;;;5.07;;
4084;SDS011;2057;50.858;6.572;2023-05-07T08:00:16;4.27;;;3.87;;
4084;SDS011;2057;50.858;6.572;2023-05-07T08:02:42;7.00;;;3.93;;
4084;SDS011;2057;50.858;6.572;2023-05-07T08:05:07;9.37;;;4.73;;
4084;SDS011;2057;50.858;6.572;2023-05-07T08:07:33;7.33;;;4.03;;
4084;SDS011;2057;50.858;6.572;2023-05-07T08:09:58;8.13;;;4.17;;
4084;SDS011;2057;50.858;6.572;2023-05-07T08:12:23;4.27;;;3.87;;
4084;SDS011;2057;50.858;6.572;2023-05-07T08:14:49;10.43;;;3.37;;
4084;SDS011;2057;50.858;6.572;2023-05-07T08:17:14;6.53;;;3.60;;
4084;SDS011;2057;50.858;6.572;2023-05-07T08:19:41;6.30;;;3.33;;
4084;SDS011;2057;50.858;6.572;2023-05-07T08:22:06;5.17;;;3.70;;
4084;SDS011;2057;50.858;6.572;2023-05-07T08:24:32;4.60;;;3.37;;
4084;SDS011;2057;50.858;6.572;2023-05-07T08:26:57;9.90;;;4.07;;
4084;SDS011;2057;50.858;6.572;2023-05-07T08:29:22;6.97;;;3.77;;
4084;SDS011;2057;50.858;6.572;2023-05-07T08:31:48;5.03;;;3.77;;
4084;SDS011;2057;50.858;6.572;2023-05-07T08:34:13;4.37;;;3.70;;
4084;SDS011;2057;50.858;6.572;2023-05-07T08:36:38;10.63;;;3.50;;
4084;SDS011;2057;50.858;6.572;2023-05-07T08:39:06;7.93;;;4.37;;
4084;SDS011;2057;50.858;6.572;2023-05-07T08:41:32;7.77;;;4.30;;
4084;SDS011;2057;50.858;6.572;2023-05-07T08:43:58;8.13;;;2.77;;
4084;SDS011;2057;50.858;6.572;2023-05-07T08:46:27;7.93;;;3.33;;
4084;SDS011;2057;50.858;6.572;2023-05-07T08:48:56;7.63;;;4.00;;
4084;SDS011;2057;50.858;6.572;2023-05-07T08:51:22;4.20;;;3.80;;
4084;SDS011;2057;50.858;6.572;2023-05-07T08:53:48;8.40;;;3.70;;
4084;SDS011;2057;50.858;6.572;2023-05-07T08:56:14;4.07;;;3.20;;
4084;SDS011;2057;50.858;6.572;2023-05-07T08:58:41;6.10;;;3.37;;
4084;SDS011;2057;50.858;6.572;2023-05-07T09:01:08;3.40;;;3.10;;
4084;SDS011;2057;50.858;6.572;2023-05-07T09:03:36;7.50;;;3.10;;
4084;SDS011;2057;50.858;6.572;2023-05-07T09:06:02;3.13;;;2.80;;
4084;SDS011;2057;50.858;6.572;2023-05-07T09:08:28;7.57;;;3.93;;
4084;SDS011;2057;50.858;6.572;2023-05-07T09:10:54;4.93;;;3.80;;
4084;SDS011;2057;50.858;6.572;2023-05-07T09:13:19;7.47;;;3.37;;
4084;SDS011;2057;50.858;6.572;2023-05-07T09:15:45;4.70;;;3.33;;
4084;SDS011;2057;50.858;6.572;2023-05-07T09:18:10;3.40;;;2.53;;
4084;SDS011;2057;50.858;6.572;2023-05-07T09:20:37;7.93;;;2.67;;
4084;SDS011;2057;50.858;6.572;2023-05-07T09:23:03;3.47;;;2.30;;
4084;SDS011;2057;50.858;6.572;2023-05-07T09:25:29;2.90;;;2.20;;
4084;SDS011;2057;50.858;6.572;2023-05-07T09:27:56;3.83;;;2.10;;
4084;SDS011;2057;50.858;6.572;2023-05-07T09:30:21;3.97;;;2.93;;
4084;SDS011;2057;50.858;6.572;2023-05-07T09:32:47;5.60;;;2.67;;
4084;SDS011;2057;50.858;6.572;2023-05-07T09:35:15;2.03;;;1.80;;
4084;SDS011;2057;50.858;6.572;2023-05-07T09:37:42;7.73;;;2.47;;
4084;SDS011;2057;50.858;6.572;2023-05-07T09:40:08;4.50;;;2.70;;
4084;SDS011;2057;50.858;6.572;2023-05-07T09:42:45;3.97;;;2.33;;
4084;SDS011;2057;50.858;6.572;2023-05-07T09:45:14;3.90;;;2.70;;
4084;SDS011;2057;50.858;6.572;2023-05-07T09:47:40;8.30;;;3.20;;
4084;SDS011;2057;50.858;6.572;2023-05-07T09:50:10;6.17;;;3.30;;
4084;SDS011;2057;50.858;6.572;2023-05-07T09:52:38;6.43;;;2.70;;
4084;SDS011;2057;50.858;6.572;2023-05-07T09:55:06;5.97;;;3.10;;
4084;SDS011;2057;50.858;6.572;2023-05-07T09:57:33;4.87;;;2.40;;
4084;SDS011;2057;50.858;6.572;2023-05-07T09:59:59;5.17;;;3.10;;
4084;SDS011;2057;50.858;6.572;2023-05-07T10:02:29;4.00;;;2.50;;
4084;SDS011;2057;50.858;6.572;2023-05-07T10:04:56;4.40;;;2.60;;
4084;SDS011;2057;50.858;6.572;2023-05-07T10:07:25;3.87;;;3.03;;
4084;SDS011;2057;50.858;6.572;2023-05-07T10:09:53;3.20;;;2.60;;
4084;SDS011;2057;50.858;6.572;2023-05-07T10:12:20;4.80;;;2.87;;
4084;SDS011;2057;50.858;6.572;2023-05-07T10:14:46;4.77;;;2.60;;
4084;SDS011;2057;50.858;6.572;2023-05-07T10:17:13;4.03;;;2.90;;
4084;SDS011;2057;50.858;6.572;2023-05-07T10:19:41;7.33;;;2.43;;
4084;SDS011;2057;50.858;6.572;2023-05-07T10:22:09;3.53;;;3.20;;
4084;SDS011;2057;50.858;6.572;2023-05-07T10:24:39;6.87;;;3.73;;
4084;SDS011;2057;50.858;6.572;2023-05-07T10:27:07;4.00;;;3.20;;
4084;SDS011;2057;50.858;6.572;2023-05-07T10:29:42;10.10;;;3.47;;
4084;SDS011;2057;50.858;6.572;2023-05-07T10:34:58;6.30;;;3.70;;
4084;SDS011;2057;50.858;6.572;2023-05-07T10:37:27;6.33;;;3.20;;
4084;SDS011;2057;50.858;6.572;2023-05-07T10:39:54;5.83;;;3.80;;
4084;SDS011;2057;50.858;6.572;2023-05-07T10:42:19;6.67;;;3.27;;
4084;SDS011;2057;50.858;6.572;2023-05-07T10:44:45;6.27;;;4.00;;
4084;SDS011;2057;50.858;6.572;2023-05-07T10:47:11;3.83;;;3.10;;
4084;SDS011;2057;50.858;6.572;2023-05-07T10:54:46;11.23;;;3.37;;
4084;SDS011;2057;50.858;6.572;2023-05-07T10:59:55;3.63;;;2.80;;
4084;SDS011;2057;50.858;6.572;2023-05-07T11:02:21;5.80;;;3.30;;
4084;SDS011;2057;50.858;6.572;2023-05-07T11:05:05;4.10;;;2.93;;
4084;SDS011;2057;50.858;6.572;2023-05-07T11:08:00;9.07;;;2.30;;
4084;SDS011;2057;50.858;6.572;2023-05-07T11:10:47;4.83;;;3.20;;
4084;SDS011;2057;50.858;6.572;2023-05-07T11:13:13;3.97;;;2.83;;
4084;SDS011;2057;50.858;6.572;2023-05-07T11:15:40;4.77;;;2.73;;
4084;SDS011;2057;50.858;6.572;2023-05-07T11:18:10;10.50;;;2.90;;
4084;SDS011;2057;50.858;6.572;2023-05-07T11:26:02;5.83;;;2.30;;
4084;SDS011;2057;50.858;6.572;2023-05-07T11:28:36;5.23;;;2.50;;
4084;SDS011;2057;50.858;6.572;2023-05-07T11:31:08;5.53;;;2.40;;
4084;SDS011;2057;50.858;6.572;2023-05-07T11:33:35;3.20;;;2.13;;
4084;SDS011;2057;50.858;6.572;2023-05-07T11:36:04;4.70;;;2.17;;
4084;SDS011;2057;50.858;6.572;2023-05-07T11:38:30;2.73;;;2.10;;
4084;SDS011;2057;50.858;6.572;2023-05-07T11:41:00;2.87;;;2.53;;
4084;SDS011;2057;50.858;6.572;2023-05-07T11:43:26;2.43;;;2.13;;
4084;SDS011;2057;50.858;6.572;2023-05-07T11:45:52;7.17;;;3.00;;
4084;SDS011;2057;50.858;6.572;2023-05-07T11:48:17;3.53;;;2.80;;
4084;SDS011;2057;50.858;6.572;2023-05-07T11:50:53;2.07;;;1.80;;
4084;SDS011;2057;50.858;6.572;2023-05-07T11:53:26;9.00;;;2.70;;
4084;SDS011;2057;50.858;6.572;2023-05-07T11:55:55;7.10;;;2.93;;
4084;SDS011;2057;50.858;6.572;2023-05-07T11:58:21;2.33;;;2.13;;
4084;SDS011;2057;50.858;6.572;2023-05-07T12:00:51;5.37;;;2.37;;
4084;SDS011;2057;50.858;6.572;2023-05-07T12:03:17;3.60;;;2.60;;
4084;SDS011;2057;50.858;6.572;2023-05-07T12:05:44;8.10;;;2.63;;
4084;SDS011;2057;50.858;6.572;2023-05-07T12:08:13;2.90;;;2.53;;
4084;SDS011;2057;50.858;6.572;2023-05-07T12:10:43;5.33;;;3.43;;
4084;SDS011;2057;50.858;6.572;2023-05-07T12:15:41;9.47;;;3.60;;
4084;SDS011;2057;50.858;6.572;2023-05-07T12:18:07;6.50;;;3.03;;
4084;SDS011;2057;50.858;6.572;2023-05-07T12:20:34;6.60;;;3.17;;
4084;SDS011;2057;50.858;6.572;2023-05-07T12:23:01;6.00;;;3.30;;
4084;SDS011;2057;50.858;6.572;2023-05-07T12:25:26;7.80;;;3.23;;
4084;SDS011;2057;50.858;6.572;2023-05-07T12:27:54;10.93;;;3.97;;
4084;SDS011;2057;50.858;6.572;2023-05-07T12:30:20;9.13;;;4.30;;
4084;SDS011;2057;50.858;6.572;2023-05-07T12:32:45;14.40;;;5.20;;
4084;SDS011;2057;50.858;6.572;2023-05-07T12:35:10;9.20;;;5.70;;
4084;SDS011;2057;50.858;6.572;2023-05-07T12:37:36;11.03;;;5.30;;
4084;SDS011;2057;50.858;6.572;2023-05-07T12:40:05;18.77;;;6.30;;
4084;SDS011;2057;50.858;6.572;2023-05-07T12:42:38;13.33;;;6.43;;
4084;SDS011;2057;50.858;6.572;2023-05-07T12:45:11;14.53;;;5.90;;
4084;SDS011;2057;50.858;6.572;2023-05-07T12:47:37;15.03;;;6.13;;
4084;SDS011;2057;50.858;6.572;2023-05-07T12:50:04;10.20;;;5.20;;
4084;SDS011;2057;50.858;6.572;2023-05-07T12:52:31;7.03;;;5.07;;
4084;SDS011;2057;50.858;6.572;2023-05-07T12:54:56;10.40;;;4.90;;
4084;SDS011;2057;50.858;6.572;2023-05-07T12:57:31;9.23;;;4.13;;
4084;SDS011;2057;50.858;6.572;2023-05-07T13:00:03;12.03;;;4.50;;
4084;SDS011;2057;50.858;6.572;2023-05-07T13:02:32;11.43;;;4.30;;
4084;SDS011;2057;50.858;6.572;2023-05-07T13:04:59;8.53;;;4.37;;
4084;SDS011;2057;50.858;6.572;2023-05-07T13:07:25;12.23;;;4.50;;
4084;SDS011;2057;50.858;6.572;2023-05-07T13:09:50;4.40;;;3.63;;
4084;SDS011;2057;50.858;6.572;2023-05-07T13:12:15;8.60;;;4.10;;
4084;SDS011;2057;50.858;6.572;2023-05-07T13:14:41;8.30;;;3.40;;
4084;SDS011;2057;50.858;6.572;2023-05-07T13:17:06;7.67;;;4.23;;
4084;SDS011;2057;50.858;6.572;2023-05-07T13:19:31;13.27;;;4.30;;
4084;SDS011;2057;50.858;6.572;2023-05-07T13:21:57;20.47;;;4.47;;
4084;SDS011;2057;50.858;6.572;2023-05-07T13:24:22;6.77;;;3.70;;
4084;SDS011;2057;50.858;6.572;2023-05-07T13:26:47;5.73;;;3.47;;
4084;SDS011;2057;50.858;6.572;2023-05-07T13:29:13;13.33;;;4.27;;
4084;SDS011;2057;50.858;6.572;2023-05-07T13:31:39;16.53;;;3.50;;
4084;SDS011;2057;50.858;6.572;2023-05-07T13:34:07;6.40;;;3.43;;
4084;SDS011;2057;50.858;6.572;2023-05-07T13:36:33;7.27;;;3.07;;
4084;SDS011;2057;50.858;6.572;2023-05-07T13:39:02;7.20;;;2.33;;
4084;SDS011;2057;50.858;6.572;2023-05-07T13:41:27;11.00;;;3.37;;
4084;SDS011;2057;50.858;6.572;2023-05-07T13:43:53;7.17;;;2.97;;
4084;SDS011;2057;50.858;6.572;2023-05-07T13:46:18;8.13;;;3.33;;
4084;SDS011;2057;50.858;6.572;2023-05-07T13:48:43;6.40;;;2.90;;
4084;SDS011;2057;50.858;6.572;2023-05-07T13:51:09;8.00;;;2.60;;
4084;SDS011;2057;50.858;6.572;2023-05-07T13:53:34;6.40;;;2.30;;
4084;SDS011;2057;50.858;6.572;2023-05-07T13:56:00;7.97;;;2.50;;
4084;SDS011;2057;50.858;6.572;2023-05-07T13:58:26;6.23;;;2.17;;
4084;SDS011;2057;50.858;6.572;2023-05-07T14:00:51;2.17;;;1.80;;
4084;SDS011;2057;50.858;6.572;2023-05-07T14:03:17;7.50;;;2.73;;
4084;SDS011;2057;50.858;6.572;2023-05-07T14:05:44;8.83;;;1.80;;
4084;SDS011;2057;50.858;6.572;2023-05-07T14:08:09;5.80;;;1.70;;
4084;SDS011;2057;50.858;6.572;2023-05-07T14:10:35;5.67;;;1.70;;
4084;SDS011;2057;50.858;6.572;2023-05-07T14:13:01;2.70;;;1.77;;
4084;SDS011;2057;50.858;6.572;2023-05-07T14:15:26;3.60;;;2.00;;
4084;SDS011;2057;50.858;6.572;2023-05-07T14:17:52;1.73;;;1.50;;
4084;SDS011;2057;50.858;6.572;2023-05-07T14:20:17;3.03;;;1.87;;
4084;SDS011;2057;50.858;6.572;2023-05-07T14:22:42;4.33;;;1.80;;
4084;SDS011;2057;50.858;6.572;2023-05-07T14:25:08;2.03;;;1.83;;
4084;SDS011;2057;50.858;6.572;2023-05-07T14:27:34;9.10;;;1.80;;
4084;SDS011;2057;50.858;6.572;2023-05-07T14:30:00;4.80;;;2.27;;
4084;SDS011;2057;50.858;6.572;2023-05-07T14:32:25;4.17;;;1.80;;
4084;SDS011;2057;50.858;6.572;2023-05-07T14:34:51;7.27;;;2.13;;
4084;SDS011;2057;50.858;6.572;2023-05-07T14:37:16;3.83;;;2.10;;
4084;SDS011;2057;50.858;6.572;2023-05-07T14:39:41;2.80;;;2.00;;
4084;SDS011;2057;50.858;6.572;2023-05-07T14:42:07;4.70;;;2.60;;
4084;SDS011;2057;50.858;6.572;2023-05-07T14:44:33;3.73;;;2.33;;
4084;SDS011;2057;50.858;6.572;2023-05-07T14:46:59;4.80;;;1.83;;
4084;SDS011;2057;50.858;6.572;2023-05-07T14:49:25;4.23;;;1.80;;
4084;SDS011;2057;50.858;6.572;2023-05-07T14:51:50;2.20;;;2.03;;
4084;SDS011;2057;50.858;6.572;2023-05-07T14:54:15;8.47;;;2.53;;
4084;SDS011;2057;50.858;6.572;2023-05-07T14:56:41;9.20;;;2.00;;
4084;SDS011;2057;50.858;6.572;2023-05-07T14:59:07;16.33;;;1.93;;
4084;SDS011;2057;50.858;6.572;2023-05-07T15:01:36;9.20;;;2.00;;
4084;SDS011;2057;50.858;6.572;2023-05-07T15:04:05;4.87;;;2.37;;
4084;SDS011;2057;50.858;6.572;2023-05-07T15:06:31;5.50;;;2.20;;
4084;SDS011;2057;50.858;6.572;2023-05-07T15:08:57;8.30;;;2.10;;
4084;SDS011;2057;50.858;6.572;2023-05-07T15:11:22;10.00;;;2.57;;
4084;SDS011;2057;50.858;6.572;2023-05-07T15:13:48;7.90;;;2.47;;
4084;SDS011;2057;50.858;6.572;2023-05-07T15:16:14;10.53;;;2.20;;
4084;SDS011;2057;50.858;6.572;2023-05-07T15:18:39;4.10;;;2.67;;
4084;SDS011;2057;50.858;6.572;2023-05-07T15:21:05;8.70;;;2.13;;
4084;SDS011;2057;50.858;6.572;2023-05-07T15:23:30;6.70;;;2.90;;
4084;SDS011;2057;50.858;6.572;2023-05-07T15:25:56;5.97;;;2.10;;
4084;SDS011;2057;50.858;6.572;2023-05-07T15:28:21;16.10;;;2.50;;